Flugplatz Hildesheim

Für EDVM sind keine METAR/TAF Berichte vorhanden.
Es werden die Flugwettermeldungen vom Flugplatz Hannover in 35 km Entfernung angezeigt.

Bericht für EDDV

vom 28.09. um 22:50 UTC

Wind 3 kt aus 100°

Sichtweite 10 km oder mehr

gute Sicht, keine Wolken < 5000 ft, keine CB, keine Wettererscheinungen (CAVOK)

Temperatur 10.0°C

Taupunkt 9.0°C

Luftfeuchtigkeit 93%

Luftdruck 1020 hPa

EDDV 282250Z 10003KT CAVOK 10/09 Q1020

Prognose für EDDV

vom 28.09. um 17:00 UTC

Am 28.09. zwischen 18:00 UTC und 08:00 UTC

Wind 4 kt aus 130°

Sichtweite 10 km oder mehr

keine signifikanten Wettererscheinungen

keine Wolken


Zwischen 08:00 und 11:00 UTC übergehend zu

Wind 10 kt aus 220°

Sichtweite 10 km oder mehr

keine signifikanten Wettererscheinungen

keine Wolken


Zwischen 13:00 UTC und 18:00 UTC zeitweise

Wind 15 kt aus 230° in Böen 25 kt

Regenschauer

aufgebrochene Bewölkung in 3000 ft


Zwischen 14:00 UTC und 18:00 UTC zeitweise mit einer Wahrscheinlichkeit von 30%

Sichtweite 4500 m

TAF EDDV 281700Z 2818/2918 13004KT CAVOK BECMG 2908/2911 22010KT TEMPO 2913/2918 23015G25KT SHRA BKN030CB PROB30 TEMPO 2914/2918 4500
Impressum